Time;durP1;ratioP1;P1;durP2;ratioP2;P2;SDS_P1;SDS_P2;PMS_P1;PMS_P2;Temp;Humidity;BMP_temperature;BMP_pressure;BME280_temperature;BME280_humidity;BME280_pressure;Samples;Min_cycle;Max_cycle;Signal;HPM_P1;HPM_P2
2023/01/19 00:01:21;;;;;;;13.48;6.50;;;;;;;;;;4970792;28;20038;-74
2023/01/19 00:03:46;;;;;;;17.17;7.35;;;;;;;;;;4969217;28;20431;-74
2023/01/19 00:06:12;;;;;;;17.40;8.57;;;;;;;;;;4970880;28;20728;-74
2023/01/19 00:08:37;;;;;;;19.80;7.40;;;;;;;;;;4965003;28;20683;-74
2023/01/19 00:11:03;;;;;;;16.52;7.78;;;;;;;;;;4963218;28;20482;-74
2023/01/19 00:13:29;;;;;;;17.52;6.95;;;;;;;;;;4951794;28;20122;-74
2023/01/19 00:15:55;;;;;;;20.05;8.32;;;;;;;;;;4951288;28;20046;-74
2023/01/19 00:18:20;;;;;;;15.02;6.25;;;;;;;;;;4950408;28;20039;-74
2023/01/19 00:20:46;;;;;;;18.83;7.10;;;;;;;;;;4965945;28;20042;-74
2023/01/19 00:23:12;;;;;;;15.63;7.53;;;;;;;;;;4970074;28;20033;-74
2023/01/19 00:25:43;;;;;;;19.33;6.20;;;;;;;;;;4970730;28;20078;-74
2023/01/19 00:28:10;;;;;;;16.15;7.20;;;;;;;;;;4970571;28;20075;-74
2023/01/19 00:30:36;;;;;;;14.80;6.45;;;;;;;;;;4970143;28;20122;-74
2023/01/19 00:33:02;;;;;;;15.20;6.95;;;;;;;;;;4970184;28;20535;-74
2023/01/19 00:35:27;;;;;;;19.25;7.32;;;;;;;;;;4960691;28;20039;-74
2023/01/19 00:37:52;;;;;;;22.33;6.88;;;;;;;;;;4985430;28;20072;-74
2023/01/19 00:40:18;;;;;;;20.83;7.32;;;;;;;;;;4989686;28;20109;-74
2023/01/19 00:42:43;;;;;;;14.52;5.95;;;;;;;;;;4986649;28;20038;-74
2023/01/19 00:45:14;;;;;;;16.75;6.82;;;;;;;;;;5002897;28;20097;-74
2023/01/19 00:47:39;;;;;;;19.58;7.47;;;;;;;;;;4971569;28;20050;-75
2023/01/19 00:50:06;;;;;;;16.75;7.60;;;;;;;;;;4970227;28;20030;-76
2023/01/19 00:52:32;;;;;;;15.10;6.97;;;;;;;;;;4974542;28;20018;-76
2023/01/19 00:54:57;;;;;;;16.67;6.55;;;;;;;;;;4989362;28;20045;-76
2023/01/19 00:57:22;;;;;;;13.98;6.68;;;;;;;;;;4971408;28;20038;-76
2023/01/19 00:59:47;;;;;;;16.95;6.95;;;;;;;;;;4989995;28;20419;-76
2023/01/19 01:02:13;;;;;;;15.82;6.28;;;;;;;;;;4959584;28;20078;-76
2023/01/19 01:04:38;;;;;;;14.50;6.13;;;;;;;;;;4949284;28;20027;-76
2023/01/19 01:07:03;;;;;;;17.15;7.22;;;;;;;;;;4950886;28;20102;-76
2023/01/19 01:09:29;;;;;;;16.38;7.15;;;;;;;;;;4951133;28;20039;-76
2023/01/19 01:11:55;;;;;;;13.75;5.55;;;;;;;;;;4966205;28;20057;-76
2023/01/19 01:14:21;;;;;;;11.25;4.97;;;;;;;;;;4969856;28;20050;-76
2023/01/19 01:16:46;;;;;;;19.27;7.82;;;;;;;;;;4952379;28;20042;-76
2023/01/19 01:19:12;;;;;;;20.75;7.70;;;;;;;;;;4969539;28;20035;-76
2023/01/19 01:21:37;;;;;;;10.82;6.53;;;;;;;;;;4968156;28;20178;-76
2023/01/19 01:24:03;;;;;;;17.08;6.55;;;;;;;;;;4961639;28;20039;-76
2023/01/19 01:26:28;;;;;;;15.20;6.93;;;;;;;;;;4967287;28;20035;-76
2023/01/19 01:28:54;;;;;;;17.77;6.95;;;;;;;;;;4981883;28;20027;-76
2023/01/19 01:31:19;;;;;;;18.63;6.40;;;;;;;;;;4969668;28;20047;-76
2023/01/19 01:33:44;;;;;;;19.48;6.50;;;;;;;;;;4951509;28;20660;-76
2023/01/19 01:36:10;;;;;;;16.92;7.10;;;;;;;;;;4969334;28;20532;-76
2023/01/19 01:38:37;;;;;;;18.08;7.93;;;;;;;;;;4969622;28;20069;-76
2023/01/19 01:41:03;;;;;;;14.60;6.45;;;;;;;;;;4966055;28;20060;-76
2023/01/19 01:44:01;;;;;;;18.45;6.97;;;;;;;;;;4966713;28;20058;-76
2023/01/19 01:46:29;;;;;;;12.13;6.50;;;;;;;;;;4955911;28;20110;-76
2023/01/19 01:49:15;;;;;;;18.90;6.55;;;;;;;;;;4947501;28;20123;-76
2023/01/19 01:51:46;;;;;;;12.52;6.45;;;;;;;;;;4949924;28;20063;-76
2023/01/19 01:54:18;;;;;;;19.00;7.10;;;;;;;;;;4966744;28;20031;-76
2023/01/19 01:56:46;;;;;;;15.00;5.28;;;;;;;;;;4969090;28;20538;-76
2023/01/19 01:59:25;;;;;;;19.77;7.22;;;;;;;;;;4966769;28;20206;-76
2023/01/19 02:04:39;;;;;;;22.63;6.80;;;;;;;;;;4968756;28;20546;-77
2023/01/19 02:15:19;;;;;;;23.05;7.47;;;;;;;;;;4948629;29;20050;-76
2023/01/19 02:17:45;;;;;;;23.60;7.70;;;;;;;;;;4948173;28;20512;-76
2023/01/19 02:20:11;;;;;;;13.82;7.20;;;;;;;;;;4922706;28;20046;-76
2023/01/19 02:22:46;;;;;;;16.73;6.35;;;;;;;;;;4948147;28;20157;-76
2023/01/19 02:25:13;;;;;;;20.75;7.82;;;;;;;;;;4931655;29;20043;-77
2023/01/19 02:27:38;;;;;;;18.02;6.88;;;;;;;;;;4929871;28;20073;-76
2023/01/19 02:30:04;;;;;;;16.17;6.22;;;;;;;;;;4943297;28;20046;-76
2023/01/19 02:32:30;;;;;;;8.43;5.43;;;;;;;;;;4932170;29;20039;-76
2023/01/19 02:34:55;;;;;;;15.95;6.68;;;;;;;;;;4948994;29;20090;-76
2023/01/19 02:37:21;;;;;;;13.02;5.80;;;;;;;;;;4949059;29;20046;-76
2023/01/19 02:39:49;;;;;;;17.48;7.20;;;;;;;;;;4929715;29;20651;-76
2023/01/19 02:42:21;;;;;;;22.30;6.65;;;;;;;;;;4937286;28;20070;-76
2023/01/19 02:44:49;;;;;;;22.67;8.45;;;;;;;;;;4939399;28;20102;-77
2023/01/19 02:47:15;;;;;;;20.77;6.95;;;;;;;;;;4967417;28;20034;-76
2023/01/19 02:49:40;;;;;;;20.10;7.35;;;;;;;;;;4950995;28;20673;-77
2023/01/19 02:52:13;;;;;;;12.23;7.07;;;;;;;;;;4968686;28;20563;-76
2023/01/19 02:54:48;;;;;;;;;;;;;;;;;;4971526;28;20134;-77
2023/01/19 02:57:21;;;;;;;19.52;6.70;;;;;;;;;;4949704;28;20307;-76
2023/01/19 03:00:04;;;;;;;19.50;8.00;;;;;;;;;;4967420;28;20038;-77
2023/01/19 03:02:42;;;;;;;22.73;7.28;;;;;;;;;;4949803;28;20034;-77
2023/01/19 03:05:13;;;;;;;17.00;7.60;;;;;;;;;;4968100;28;20034;-76
2023/01/19 03:08:05;;;;;;;19.33;8.75;;;;;;;;;;4968240;28;20030;-76
2023/01/19 03:11:02;;;;;;;24.73;7.90;;;;;;;;;;4967623;28;20435;-76
2023/01/19 03:13:55;;;;;;;16.70;7.13;;;;;;;;;;4962763;28;20055;-76
2023/01/19 03:16:38;;;;;;;23.92;7.88;;;;;;;;;;4957796;28;20174;-76
2023/01/19 03:19:16;;;;;;;14.18;7.40;;;;;;;;;;4947556;29;20043;-76
2023/01/19 03:21:46;;;;;;;15.05;6.63;;;;;;;;;;4948404;28;20035;-76
2023/01/19 03:24:14;;;;;;;20.60;8.45;;;;;;;;;;4941825;28;20086;-76
2023/01/19 03:26:47;;;;;;;16.98;7.03;;;;;;;;;;4930284;29;20408;-76
2023/01/19 03:29:14;;;;;;;16.50;7.57;;;;;;;;;;4948529;28;20031;-77
2023/01/19 03:31:44;;;;;;;27.48;9.52;;;;;;;;;;4948611;28;20074;-77
2023/01/19 03:34:12;;;;;;;17.38;7.65;;;;;;;;;;4948523;28;20071;-76
2023/01/19 03:36:49;;;;;;;20.38;7.63;;;;;;;;;;4958652;28;20068;-77
2023/01/19 03:39:20;;;;;;;24.15;9.80;;;;;;;;;;4962546;28;20042;-77
2023/01/19 03:41:47;;;;;;;22.85;7.65;;;;;;;;;;4949163;28;20035;-77
2023/01/19 03:44:13;;;;;;;19.38;6.82;;;;;;;;;;4966982;28;20518;-77
2023/01/19 03:46:39;;;;;;;24.55;9.00;;;;;;;;;;4967737;28;20611;-77
2023/01/19 03:49:06;;;;;;;20.05;8.23;;;;;;;;;;4967084;28;20043;-77
2023/01/19 03:51:35;;;;;;;31.67;10.23;;;;;;;;;;4967152;28;20039;-77
2023/01/19 03:54:00;;;;;;;13.52;6.53;;;;;;;;;;4983375;28;20027;-77
2023/01/19 03:56:25;;;;;;;14.88;7.57;;;;;;;;;;4969425;28;20038;-77
2023/01/19 03:58:51;;;;;;;24.13;7.15;;;;;;;;;;4987518;28;20458;-77
2023/01/19 04:01:19;;;;;;;27.95;8.35;;;;;;;;;;4984962;28;20052;-77
2023/01/19 04:03:46;;;;;;;27.80;8.45;;;;;;;;;;4968561;28;20118;-77
2023/01/19 04:06:11;;;;;;;20.13;7.93;;;;;;;;;;4969100;28;20030;-77
2023/01/19 04:08:36;;;;;;;15.45;6.50;;;;;;;;;;4968907;28;20432;-76
2023/01/19 04:11:02;;;;;;;13.32;6.22;;;;;;;;;;4966215;28;20098;-77
2023/01/19 04:13:28;;;;;;;17.38;6.45;;;;;;;;;;4966390;28;20106;-77
2023/01/19 04:15:58;;;;;;;22.88;8.15;;;;;;;;;;4950980;28;20479;-77
2023/01/19 04:18:23;;;;;;;15.23;6.22;;;;;;;;;;4953200;28;20030;-77
2023/01/19 04:20:48;;;;;;;23.95;7.78;;;;;;;;;;4970909;28;20035;-77
2023/01/19 04:23:14;;;;;;;13.85;5.75;;;;;;;;;;4970064;28;20080;-77
2023/01/19 04:25:39;;;;;;;22.77;7.75;;;;;;;;;;4971082;28;20023;-77
2023/01/19 04:28:04;;;;;;;34.28;10.38;;;;;;;;;;4970087;28;20089;-77
2023/01/19 04:30:30;;;;;;;19.38;7.30;;;;;;;;;;4970149;28;20043;-77
2023/01/19 04:32:57;;;;;;;23.17;6.75;;;;;;;;;;4971006;28;20086;-78
2023/01/19 04:35:23;;;;;;;20.33;7.00;;;;;;;;;;4965820;28;20523;-77
2023/01/19 04:37:48;;;;;;;27.70;9.95;;;;;;;;;;4970109;28;20023;-77
2023/01/19 04:40:13;;;;;;;23.17;8.57;;;;;;;;;;4969933;28;20035;-77
2023/01/19 04:42:43;;;;;;;28.05;10.55;;;;;;;;;;4969560;28;20038;-77
2023/01/19 04:45:09;;;;;;;17.45;6.68;;;;;;;;;;4954383;28;20042;-77
2023/01/19 04:47:35;;;;;;;21.25;7.90;;;;;;;;;;4974557;28;20054;-77
2023/01/19 04:50:00;;;;;;;24.73;8.25;;;;;;;;;;4967416;28;20026;-77
2023/01/19 04:52:33;;;;;;;24.77;9.52;;;;;;;;;;4973614;28;20038;-77
2023/01/19 04:54:59;;;;;;;;;;;;;;;;;;4983207;28;20038;-77
2023/01/19 04:57:24;;;;;;;14.52;6.38;;;;;;;;;;4965556;28;19921;-78
2023/01/19 04:59:49;;;;;;;23.98;8.57;;;;;;;;;;4968364;28;20035;-77
2023/01/19 05:02:14;;;;;;;14.63;7.07;;;;;;;;;;4969143;28;20037;-77
2023/01/19 05:04:40;;;;;;;22.45;7.32;;;;;;;;;;4970684;28;20606;-77
2023/01/19 05:07:05;;;;;;;17.50;6.90;;;;;;;;;;4968669;28;20031;-77
2023/01/19 05:09:30;;;;;;;30.23;9.15;;;;;;;;;;4969655;28;20087;-77
2023/01/19 05:11:56;;;;;;;21.95;7.75;;;;;;;;;;4964015;28;20665;-78
2023/01/19 05:14:21;;;;;;;27.25;8.75;;;;;;;;;;4969716;28;20031;-77
2023/01/19 05:16:46;;;;;;;16.30;6.93;;;;;;;;;;4970001;28;20101;-77
2023/01/19 05:19:12;;;;;;;21.95;7.38;;;;;;;;;;4968104;28;20034;-77
2023/01/19 05:21:37;;;;;;;24.13;8.85;;;;;;;;;;4968899;28;20126;-77
2023/01/19 05:24:03;;;;;;;40.65;13.10;;;;;;;;;;4968770;28;20030;-77
2023/01/19 05:26:28;;;;;;;14.02;6.55;;;;;;;;;;4969504;28;20381;-77
2023/01/19 05:28:53;;;;;;;23.13;8.35;;;;;;;;;;4969110;28;20034;-77
2023/01/19 05:31:18;;;;;;;19.58;7.00;;;;;;;;;;4967384;28;20026;-77
2023/01/19 05:33:44;;;;;;;22.52;8.98;;;;;;;;;;4969211;28;20035;-77
2023/01/19 05:36:09;;;;;;;24.23;8.77;;;;;;;;;;4968931;28;20031;-77
2023/01/19 05:38:34;;;;;;;18.83;7.03;;;;;;;;;;4969483;28;20034;-77
2023/01/19 05:41:00;;;;;;;22.73;8.43;;;;;;;;;;4967841;28;20022;-77
2023/01/19 05:43:25;;;;;;;23.25;7.53;;;;;;;;;;4955138;28;20039;-77
2023/01/19 05:45:50;;;;;;;22.92;8.43;;;;;;;;;;4949396;28;20051;-77
2023/01/19 05:48:16;;;;;;;24.15;7.70;;;;;;;;;;4949761;28;20042;-77
2023/01/19 05:50:42;;;;;;;20.17;7.10;;;;;;;;;;4954178;28;20031;-77
2023/01/19 05:53:07;;;;;;;29.10;8.68;;;;;;;;;;4959469;28;20518;-77
2023/01/19 05:55:32;;;;;;;22.05;8.63;;;;;;;;;;4988181;28;20029;-77
2023/01/19 05:57:58;;;;;;;26.35;8.25;;;;;;;;;;4971246;28;20043;-77
2023/01/19 06:00:24;;;;;;;19.20;7.80;;;;;;;;;;4975613;28;20726;-77
2023/01/19 06:02:49;;;;;;;30.48;9.73;;;;;;;;;;4931621;29;20027;-78
2023/01/19 06:05:15;;;;;;;18.70;7.75;;;;;;;;;;4948074;28;20400;-77
2023/01/19 06:07:40;;;;;;;17.25;6.85;;;;;;;;;;4950147;28;20030;-77
2023/01/19 06:10:07;;;;;;;21.30;8.85;;;;;;;;;;4968469;28;20527;-77
2023/01/19 06:12:32;;;;;;;20.70;8.00;;;;;;;;;;4968521;28;20027;-77
2023/01/19 06:14:58;;;;;;;20.38;8.30;;;;;;;;;;4968226;28;20054;-77
2023/01/19 06:17:23;;;;;;;23.35;7.80;;;;;;;;;;4968845;28;20038;-77
2023/01/19 06:19:48;;;;;;;23.20;7.97;;;;;;;;;;4968649;28;20031;-77
2023/01/19 06:22:14;;;;;;;18.70;6.90;;;;;;;;;;4968464;28;20046;-77
2023/01/19 06:24:39;;;;;;;19.38;7.30;;;;;;;;;;4968335;28;20049;-76
2023/01/19 06:27:05;;;;;;;21.15;8.70;;;;;;;;;;4962021;28;20726;-77
2023/01/19 06:29:31;;;;;;;18.27;7.72;;;;;;;;;;4967734;28;20064;-76
2023/01/19 06:31:56;;;;;;;17.00;7.00;;;;;;;;;;4968561;28;20031;-77
2023/01/19 06:34:22;;;;;;;20.45;7.20;;;;;;;;;;4967301;28;20517;-77
2023/01/19 06:36:47;;;;;;;34.75;10.18;;;;;;;;;;4949610;28;20547;-77
2023/01/19 06:39:12;;;;;;;26.85;10.80;;;;;;;;;;4948462;28;20042;-77
2023/01/19 06:41:38;;;;;;;17.23;7.05;;;;;;;;;;4967277;28;20595;-77
2023/01/19 06:44:04;;;;;;;18.75;7.38;;;;;;;;;;4966088;28;20034;-77
2023/01/19 06:46:30;;;;;;;27.27;9.35;;;;;;;;;;4971453;28;20058;-77
2023/01/19 06:48:55;;;;;;;23.63;8.45;;;;;;;;;;4967078;28;20077;-77
2023/01/19 06:51:21;;;;;;;26.27;10.07;;;;;;;;;;4949094;28;20043;-77
2023/01/19 06:53:47;;;;;;;26.00;8.27;;;;;;;;;;4963932;28;20166;-77
2023/01/19 06:56:12;;;;;;;23.38;8.93;;;;;;;;;;4978020;28;20060;-78
2023/01/19 06:58:37;;;;;;;31.70;10.43;;;;;;;;;;4950880;28;20050;-77
2023/01/19 07:01:04;;;;;;;20.27;7.43;;;;;;;;;;4955095;28;20034;-79
2023/01/19 07:03:30;;;;;;;29.02;8.77;;;;;;;;;;4936632;28;20122;-79
2023/01/19 07:05:55;;;;;;;22.90;8.00;;;;;;;;;;4965226;28;20034;-79
2023/01/19 07:08:22;;;;;;;25.50;7.88;;;;;;;;;;4948012;28;20038;-78
2023/01/19 07:10:47;;;;;;;23.08;8.07;;;;;;;;;;4980677;28;20492;-78
2023/01/19 07:13:13;;;;;;;21.45;7.38;;;;;;;;;;4949618;28;20043;-78
2023/01/19 07:15:38;;;;;;;24.58;8.15;;;;;;;;;;4966538;28;20047;-79
2023/01/19 07:18:08;;;;;;;17.08;7.32;;;;;;;;;;4965096;28;20039;-78
2023/01/19 07:20:33;;;;;;;20.38;7.80;;;;;;;;;;4947084;28;20055;-78
2023/01/19 07:22:59;;;;;;;15.80;8.07;;;;;;;;;;4962820;28;20133;-78
2023/01/19 07:25:25;;;;;;;25.30;7.68;;;;;;;;;;4947833;28;20066;-78
2023/01/19 07:27:51;;;;;;;20.42;7.20;;;;;;;;;;4955858;28;20054;-78
2023/01/19 07:30:17;;;;;;;17.38;7.03;;;;;;;;;;4947206;28;20490;-79
2023/01/19 07:32:42;;;;;;;22.95;8.05;;;;;;;;;;4946088;28;20039;-78
2023/01/19 07:35:09;;;;;;;21.20;8.13;;;;;;;;;;4964302;28;20038;-78
2023/01/19 07:37:34;;;;;;;26.48;8.23;;;;;;;;;;4959839;28;20031;-78
2023/01/19 07:40:00;;;;;;;20.65;7.25;;;;;;;;;;4947337;28;20046;-78
2023/01/19 07:42:26;;;;;;;21.35;7.97;;;;;;;;;;4962152;28;20496;-78
2023/01/19 07:44:51;;;;;;;45.92;9.07;;;;;;;;;;4973766;28;20125;-78
2023/01/19 07:47:16;;;;;;;22.98;7.40;;;;;;;;;;4969577;28;20034;-78
2023/01/19 07:49:42;;;;;;;20.83;7.28;;;;;;;;;;4971130;28;20022;-77
2023/01/19 07:52:08;;;;;;;23.17;6.88;;;;;;;;;;4970030;28;20094;-78
2023/01/19 07:54:33;;;;;;;17.50;8.50;;;;;;;;;;4963267;28;20566;-78
2023/01/19 07:57:01;;;;;;;20.05;8.10;;;;;;;;;;4968393;28;20038;-78
2023/01/19 07:59:29;;;;;;;25.30;7.97;;;;;;;;;;4969631;28;20049;-78
2023/01/19 08:01:54;;;;;;;21.85;7.65;;;;;;;;;;4969245;28;20019;-78
2023/01/19 08:04:20;;;;;;;33.95;10.40;;;;;;;;;;4966975;28;20496;-78
2023/01/19 08:06:46;;;;;;;26.58;8.55;;;;;;;;;;4970089;28;20042;-78
2023/01/19 08:09:12;;;;;;;13.68;5.80;;;;;;;;;;4969315;28;20519;-78
2023/01/19 08:11:37;;;;;;;24.30;8.13;;;;;;;;;;4969211;28;20034;-78
2023/01/19 08:14:03;;;;;;;18.40;7.68;;;;;;;;;;4969384;28;20117;-78
2023/01/19 08:16:28;;;;;;;18.33;6.00;;;;;;;;;;4970975;28;20019;-78
2023/01/19 08:18:54;;;;;;;15.05;6.32;;;;;;;;;;4969936;28;20046;-78
2023/01/19 08:21:20;;;;;;;23.27;7.97;;;;;;;;;;4970517;28;20088;-78
2023/01/19 08:23:56;;;;;;;17.55;6.82;;;;;;;;;;4970345;28;20101;-82
2023/01/19 08:26:26;;;;;;;18.38;7.70;;;;;;;;;;4969860;28;20672;-80
2023/01/19 08:28:53;;;;;;;19.92;9.10;;;;;;;;;;4962223;28;20023;-81
2023/01/19 08:31:19;;;;;;;18.13;6.93;;;;;;;;;;4969821;28;20108;-78
2023/01/19 08:33:44;;;;;;;22.55;7.88;;;;;;;;;;4952796;28;20567;-78
2023/01/19 08:36:09;;;;;;;16.85;7.53;;;;;;;;;;4970404;28;20328;-78
2023/01/19 08:38:35;;;;;;;22.25;6.80;;;;;;;;;;4952192;28;20085;-77
2023/01/19 08:41:00;;;;;;;28.02;8.15;;;;;;;;;;4950911;28;20027;-78
2023/01/19 08:43:25;;;;;;;33.58;8.57;;;;;;;;;;4970196;28;20039;-78
2023/01/19 08:45:51;;;;;;;18.70;6.95;;;;;;;;;;4958934;28;20047;-78
2023/01/19 08:48:21;;;;;;;29.40;7.72;;;;;;;;;;4966467;28;20043;-77
2023/01/19 08:50:48;;;;;;;28.33;8.38;;;;;;;;;;4966031;28;20059;-77
2023/01/19 08:53:14;;;;;;;26.92;7.45;;;;;;;;;;4994264;28;20047;-78
2023/01/19 08:55:39;;;;;;;19.02;6.72;;;;;;;;;;4989564;28;20140;-78
2023/01/19 08:58:06;;;;;;;26.08;7.45;;;;;;;;;;4974547;28;20551;-78
2023/01/19 09:00:33;;;;;;;20.30;7.40;;;;;;;;;;4967038;28;20049;-78
2023/01/19 09:03:01;;;;;;;24.05;8.68;;;;;;;;;;4965854;28;20257;-78
2023/01/19 09:05:27;;;;;;;17.25;6.68;;;;;;;;;;4963510;28;20053;-78
2023/01/19 09:07:52;;;;;;;18.65;5.45;;;;;;;;;;4965948;28;20026;-78
2023/01/19 09:10:18;;;;;;;19.45;6.60;;;;;;;;;;4966061;28;20559;-80
2023/01/19 09:12:45;;;;;;;12.07;5.93;;;;;;;;;;4967556;28;20047;-79
2023/01/19 09:15:12;;;;;;;19.75;6.53;;;;;;;;;;4968182;28;20062;-78
2023/01/19 09:17:38;;;;;;;17.15;7.25;;;;;;;;;;4961042;28;20504;-78
2023/01/19 09:20:04;;;;;;;22.02;6.57;;;;;;;;;;4967123;28;20037;-78
2023/01/19 09:22:30;;;;;;;18.40;6.68;;;;;;;;;;4965399;28;20411;-78
2023/01/19 09:24:55;;;;;;;14.35;5.85;;;;;;;;;;4965172;28;20045;-78
2023/01/19 09:27:20;;;;;;;20.23;7.00;;;;;;;;;;4964873;28;20042;-78
2023/01/19 09:29:51;;;;;;;19.90;6.95;;;;;;;;;;4970745;28;20065;-78
2023/01/19 09:32:18;;;;;;;22.90;7.03;;;;;;;;;;4962240;28;20041;-78
2023/01/19 09:34:43;;;;;;;22.10;8.10;;;;;;;;;;4962556;28;20022;-77
2023/01/19 09:37:08;;;;;;;29.33;7.22;;;;;;;;;;4964310;28;20062;-78
2023/01/19 09:39:34;;;;;;;17.58;6.45;;;;;;;;;;4965739;28;20043;-78
2023/01/19 09:42:16;;;;;;;19.73;6.47;;;;;;;;;;4964405;28;20112;-77
2023/01/19 09:44:43;;;;;;;13.27;5.38;;;;;;;;;;4962417;28;20054;-77
2023/01/19 09:47:15;;;;;;;18.52;7.35;;;;;;;;;;4964357;28;20109;-77
2023/01/19 09:49:44;;;;;;;15.32;7.32;;;;;;;;;;4945654;28;20129;-77
2023/01/19 09:52:12;;;;;;;20.88;7.65;;;;;;;;;;4957970;28;20086;-78
2023/01/19 09:54:51;;;;;;;18.85;6.93;;;;;;;;;;4963725;28;20043;-77
2023/01/19 09:57:17;;;;;;;13.48;6.13;;;;;;;;;;4965454;28;20037;-78
2023/01/19 09:59:46;;;;;;;20.38;7.28;;;;;;;;;;4946696;28;20047;-77
2023/01/19 10:02:30;;;;;;;20.00;6.63;;;;;;;;;;4965655;28;20026;-78
2023/01/19 10:04:58;;;;;;;;;;;;;;;;;;4966008;28;20035;-78
2023/01/19 10:07:44;;;;;;;17.58;5.93;;;;;;;;;;4965035;28;20664;-77
2023/01/19 10:10:14;;;;;;;15.68;5.82;;;;;;;;;;4960943;28;20062;-78
2023/01/19 10:13:04;;;;;;;22.83;6.45;;;;;;;;;;4963220;28;20043;-77
2023/01/19 10:15:53;;;;;;;20.15;7.28;;;;;;;;;;4939223;28;20054;-77
2023/01/19 10:18:24;;;;;;;23.63;6.90;;;;;;;;;;4952704;28;20078;-78
2023/01/19 10:21:03;;;;;;;16.20;6.57;;;;;;;;;;4975123;28;20059;-77
2023/01/19 10:23:56;;;;;;;18.60;7.72;;;;;;;;;;4938643;28;20046;-77
2023/01/19 10:26:35;;;;;;;14.63;5.80;;;;;;;;;;4959528;28;20133;-77
2023/01/19 10:29:06;;;;;;;18.15;7.10;;;;;;;;;;4960337;28;20035;-76
2023/01/19 10:31:34;;;;;;;18.27;6.15;;;;;;;;;;4944446;28;20102;-77
2023/01/19 10:33:59;;;;;;;23.02;7.75;;;;;;;;;;4962942;28;20035;-77
2023/01/19 10:36:36;;;;;;;8.45;4.22;;;;;;;;;;4957786;28;20049;-77
2023/01/19 10:39:04;;;;;;;13.98;7.18;;;;;;;;;;4947175;28;20046;-77
2023/01/19 10:41:35;;;;;;;17.58;6.13;;;;;;;;;;4965959;28;20035;-77
2023/01/19 10:44:02;;;;;;;18.27;6.78;;;;;;;;;;4953379;28;20476;-77
2023/01/19 10:46:41;;;;;;;17.50;6.63;;;;;;;;;;4952951;28;20093;-76
2023/01/19 10:49:22;;;;;;;22.67;7.07;;;;;;;;;;4949999;28;20043;-77
2023/01/19 10:51:48;;;;;;;27.45;8.35;;;;;;;;;;4948905;28;20090;-77
2023/01/19 10:54:14;;;;;;;9.90;4.68;;;;;;;;;;4941820;28;20043;-77
2023/01/19 10:56:40;;;;;;;18.33;7.30;;;;;;;;;;4964521;28;20070;-78
2023/01/19 10:59:06;;;;;;;17.85;8.05;;;;;;;;;;4962407;28;20093;-77
2023/01/19 11:01:35;;;;;;;25.05;7.40;;;;;;;;;;4951928;28;20168;-77
2023/01/19 11:04:19;;;;;;;23.70;8.25;;;;;;;;;;4960630;28;20101;-78
2023/01/19 11:06:44;;;;;;;21.00;7.95;;;;;;;;;;4956312;28;20039;-77
2023/01/19 11:09:15;;;;;;;20.40;8.35;;;;;;;;;;4960563;28;20047;-77
2023/01/19 11:11:44;;;;;;;22.10;7.53;;;;;;;;;;4968971;28;20043;-77
2023/01/19 11:14:12;;;;;;;18.80;7.25;;;;;;;;;;4960001;28;20027;-78
2023/01/19 11:16:38;;;;;;;25.67;7.80;;;;;;;;;;4963245;28;20038;-77
2023/01/19 11:19:13;;;;;;;15.50;6.38;;;;;;;;;;4961837;28;20090;-78
2023/01/19 11:21:38;;;;;;;14.93;6.78;;;;;;;;;;4966008;28;20043;-77
2023/01/19 11:24:08;;;;;;;17.73;6.28;;;;;;;;;;4962477;28;20034;-77
2023/01/19 11:26:41;;;;;;;11.35;5.28;;;;;;;;;;4965980;28;20094;-77
2023/01/19 11:29:20;;;;;;;20.00;8.02;;;;;;;;;;4955121;28;20475;-77
2023/01/19 11:31:46;;;;;;;25.20;8.80;;;;;;;;;;4967511;28;20039;-78
2023/01/19 11:34:23;;;;;;;15.88;6.35;;;;;;;;;;4959911;28;20043;-77
2023/01/19 11:37:00;;;;;;;20.27;7.35;;;;;;;;;;4962648;28;20050;-77
2023/01/19 11:39:28;;;;;;;13.98;4.28;;;;;;;;;;4979915;28;20070;-77
2023/01/19 11:41:57;;;;;;;23.13;7.47;;;;;;;;;;4966439;28;20057;-77
2023/01/19 11:44:28;;;;;;;22.33;7.72;;;;;;;;;;4960739;28;20049;-78
2023/01/19 11:46:57;;;;;;;17.73;6.50;;;;;;;;;;4965178;28;20150;-78
2023/01/19 11:49:48;;;;;;;15.50;6.78;;;;;;;;;;4966149;28;20472;-77
2023/01/19 11:52:41;;;;;;;13.70;6.00;;;;;;;;;;4968636;28;20035;-77
2023/01/19 11:55:17;;;;;;;21.65;7.30;;;;;;;;;;4966471;28;20041;-78
2023/01/19 11:57:49;;;;;;;21.40;7.97;;;;;;;;;;4971019;28;20086;-78
2023/01/19 12:00:34;;;;;;;15.73;6.03;;;;;;;;;;4966338;28;20058;-78
2023/01/19 12:03:09;;;;;;;13.80;4.97;;;;;;;;;;4966336;28;20047;-77
2023/01/19 12:05:40;;;;;;;17.08;5.68;;;;;;;;;;4972588;28;20059;-79
2023/01/19 12:08:13;;;;;;;15.45;6.22;;;;;;;;;;4962439;28;20090;-78
2023/01/19 12:10:43;;;;;;;23.33;8.75;;;;;;;;;;4966480;28;20085;-78
2023/01/19 12:13:20;;;;;;;26.40;6.22;;;;;;;;;;4963223;28;20411;-78
2023/01/19 12:15:48;;;;;;;15.57;7.40;;;;;;;;;;4958331;28;20109;-77
2023/01/19 12:18:35;;;;;;;23.00;6.60;;;;;;;;;;4964190;28;20147;-78
2023/01/19 12:21:01;;;;;;;23.35;8.10;;;;;;;;;;4960334;28;20049;-77
2023/01/19 12:23:35;;;;;;;17.10;6.72;;;;;;;;;;4954388;28;20761;-77
2023/01/19 12:26:23;;;;;;;13.15;5.20;;;;;;;;;;4957167;28;20636;-77
2023/01/19 12:28:51;;;;;;;19.38;7.07;;;;;;;;;;4958787;28;20480;-77
2023/01/19 12:31:18;;;;;;;20.75;7.05;;;;;;;;;;4961553;28;20953;-77
2023/01/19 12:33:44;;;;;;;14.40;5.68;;;;;;;;;;4957987;28;20927;-77
2023/01/19 12:36:15;;;;;;;21.15;6.90;;;;;;;;;;4956790;28;20039;-77
2023/01/19 12:38:44;;;;;;;17.08;7.22;;;;;;;;;;4968000;28;20066;-77
2023/01/19 12:41:30;;;;;;;14.45;5.97;;;;;;;;;;4956461;28;20078;-78
2023/01/19 12:44:11;;;;;;;12.48;6.15;;;;;;;;;;4971286;28;20046;-77
2023/01/19 12:46:36;;;;;;;16.35;6.28;;;;;;;;;;4965049;28;20554;-77
2023/01/19 12:49:19;;;;;;;21.02;8.07;;;;;;;;;;4949753;28;20046;-78
2023/01/19 12:51:45;;;;;;;15.93;7.07;;;;;;;;;;4961955;28;20130;-77
2023/01/19 12:54:24;;;;;;;14.68;6.43;;;;;;;;;;4959809;28;20150;-78
2023/01/19 12:56:57;;;;;;;13.32;6.05;;;;;;;;;;4959457;28;20054;-78
2023/01/19 12:59:25;;;;;;;18.20;6.78;;;;;;;;;;4957226;28;20523;-78
2023/01/19 13:02:18;;;;;;;18.05;6.65;;;;;;;;;;4950618;28;20031;-78
2023/01/19 13:05:06;;;;;;;26.55;7.55;;;;;;;;;;4976055;28;20046;-78
2023/01/19 13:08:05;;;;;;;15.48;5.97;;;;;;;;;;4956685;28;20137;-78
2023/01/19 13:10:53;;;;;;;13.23;5.28;;;;;;;;;;4953335;28;20050;-78
2023/01/19 13:13:20;;;;;;;22.25;7.68;;;;;;;;;;4943276;28;20532;-78
2023/01/19 13:15:46;;;;;;;16.00;6.30;;;;;;;;;;4962397;28;20042;-77
2023/01/19 13:18:20;;;;;;;18.13;6.05;;;;;;;;;;4970176;28;20234;-79
2023/01/19 13:20:50;;;;;;;16.98;7.30;;;;;;;;;;4969209;28;21041;-78
2023/01/19 13:23:24;;;;;;;16.55;6.18;;;;;;;;;;4950457;28;20033;-77
2023/01/19 13:26:04;;;;;;;16.80;6.72;;;;;;;;;;4960231;28;20034;-78
2023/01/19 13:28:41;;;;;;;20.83;5.97;;;;;;;;;;4966660;28;20063;-78
2023/01/19 13:31:08;;;;;;;19.30;7.82;;;;;;;;;;4966036;28;20066;-77
2023/01/19 13:33:44;;;;;;;15.77;5.97;;;;;;;;;;4948381;28;20430;-77
2023/01/19 13:36:21;;;;;;;16.33;6.75;;;;;;;;;;4957985;28;20126;-77
2023/01/19 13:38:49;;;;;;;16.52;6.40;;;;;;;;;;4962545;28;20544;-77
2023/01/19 13:41:20;;;;;;;17.83;6.93;;;;;;;;;;4947199;28;20094;-78
2023/01/19 13:43:48;;;;;;;17.10;6.40;;;;;;;;;;4958624;28;20038;-78
2023/01/19 13:46:16;;;;;;;20.77;7.40;;;;;;;;;;4952264;28;20057;-78
2023/01/19 13:48:52;;;;;;;21.55;7.68;;;;;;;;;;4957883;28;20666;-77
2023/01/19 13:51:20;;;;;;;22.65;7.75;;;;;;;;;;4950622;28;20035;-78
2023/01/19 13:53:53;;;;;;;23.35;7.63;;;;;;;;;;4957108;28;20058;-78
2023/01/19 13:56:20;;;;;;;;;;;;;;;;;;4939363;28;20034;-78
2023/01/19 13:58:59;;;;;;;12.20;4.82;;;;;;;;;;4946122;28;20006;-78
2023/01/19 14:01:26;;;;;;;16.33;6.00;;;;;;;;;;4958426;28;20049;-78
2023/01/19 14:03:52;;;;;;;14.40;5.53;;;;;;;;;;4965882;28;20069;-78
2023/01/19 14:06:22;;;;;;;17.48;6.68;;;;;;;;;;4968881;28;20503;-77
2023/01/19 14:09:11;;;;;;;30.42;6.80;;;;;;;;;;4958434;28;20596;-78
2023/01/19 14:11:36;;;;;;;15.98;5.28;;;;;;;;;;4957151;28;20093;-78
2023/01/19 14:14:02;;;;;;;15.85;6.72;;;;;;;;;;4946352;28;20071;-78
2023/01/19 14:16:27;;;;;;;15.38;6.40;;;;;;;;;;4931948;28;20524;-78
2023/01/19 14:19:01;;;;;;;18.33;6.05;;;;;;;;;;4959520;28;20038;-77
2023/01/19 14:21:37;;;;;;;15.32;5.82;;;;;;;;;;4964175;28;20083;-77
2023/01/19 14:24:16;;;;;;;18.38;7.00;;;;;;;;;;4971539;28;20039;-78
2023/01/19 14:26:50;;;;;;;15.98;6.10;;;;;;;;;;4963243;28;20027;-79
2023/01/19 14:29:26;;;;;;;;;;;;;;;;;;4949398;28;20384;-79
2023/01/19 14:32:13;;;;;;;18.65;5.88;;;;;;;;;;4962789;28;19929;-77
2023/01/19 14:34:42;;;;;;;13.10;5.15;;;;;;;;;;4944022;28;20133;-78
2023/01/19 14:37:15;;;;;;;12.32;5.90;;;;;;;;;;4958721;28;20049;-78
2023/01/19 14:39:45;;;;;;;15.68;5.53;;;;;;;;;;4956886;28;20039;-78
2023/01/19 14:42:15;;;;;;;15.18;6.43;;;;;;;;;;4958903;28;20049;-78
2023/01/19 14:44:46;;;;;;;19.50;5.78;;;;;;;;;;4960166;28;20043;-78
2023/01/19 14:47:24;;;;;;;8.95;4.45;;;;;;;;;;4962730;28;20057;-78
2023/01/19 14:49:50;;;;;;;14.70;6.28;;;;;;;;;;4961413;28;20057;-78
2023/01/19 14:52:23;;;;;;;14.40;6.05;;;;;;;;;;4957511;28;21299;-77
2023/01/19 14:54:49;;;;;;;;;;;;;;;;;;4966251;28;20035;-78